<?xml version="1.0" encoding="UTF-8" standalone="no" ?>
<gpx xmlns="http://www.topografix.com/GPX/1/1" xmlns:xsi="http://www.w3.org/2001/XMLSchema-instance" xsi:schemaLocation="http://www.topografix.com/GPX/1/1 http://www.topografix.com/GPX/1/1/gpx.xsd" version="1.1" creator="VisuGPX - https://www.visugpx.com">
  <metadata>
    <name>St Cernin GPS - L'Homme  Mort </name>
    <desc><![CDATA[Trace  GPS
Rando du 23 Juin 2013]]></desc>
  </metadata>
  <trk>
    <name><![CDATA[St Cernin GPS - L'Homme  Mort _1]]></name>
    <trkseg>
      <trkpt lat="45.10448" lon="1.41447">
        <ele>109</ele>
        <time>2013-06-23T07:21:32Z</time>
      </trkpt>
      <trkpt lat="45.10421" lon="1.41459">
        <ele>100</ele>
        <time>2013-06-23T07:22:08Z</time>
      </trkpt>
      <trkpt lat="45.10403" lon="1.41465">
        <ele>96</ele>
        <time>2013-06-23T07:22:25Z</time>
      </trkpt>
      <trkpt lat="45.10385" lon="1.41473">
        <ele>95</ele>
        <time>2013-06-23T07:22:42Z</time>
      </trkpt>
      <trkpt lat="45.10364" lon="1.41479">
        <ele>95</ele>
        <time>2013-06-23T07:23:00Z</time>
      </trkpt>
      <trkpt lat="45.10345" lon="1.41487">
        <ele>94</ele>
        <time>2013-06-23T07:23:17Z</time>
      </trkpt>
      <trkpt lat="45.10326" lon="1.41497">
        <ele>94</ele>
        <time>2013-06-23T07:23:33Z</time>
      </trkpt>
      <trkpt lat="45.10309" lon="1.41502">
        <ele>94</ele>
        <time>2013-06-23T07:23:49Z</time>
      </trkpt>
      <trkpt lat="45.10297" lon="1.41482">
        <ele>94</ele>
        <time>2013-06-23T07:24:08Z</time>
      </trkpt>
      <trkpt lat="45.10274" lon="1.41484">
        <ele>96</ele>
        <time>2013-06-23T07:24:28Z</time>
      </trkpt>
      <trkpt lat="45.10254" lon="1.41471">
        <ele>96</ele>
        <time>2013-06-23T07:24:48Z</time>
      </trkpt>
      <trkpt lat="45.10256" lon="1.41451">
        <ele>99</ele>
        <time>2013-06-23T07:25:04Z</time>
      </trkpt>
      <trkpt lat="45.10247" lon="1.41422">
        <ele>104</ele>
        <time>2013-06-23T07:25:22Z</time>
      </trkpt>
      <trkpt lat="45.10248" lon="1.41398">
        <ele>105</ele>
        <time>2013-06-23T07:25:43Z</time>
      </trkpt>
      <trkpt lat="45.10245" lon="1.41378">
        <ele>111</ele>
        <time>2013-06-23T07:26:05Z</time>
      </trkpt>
      <trkpt lat="45.10238" lon="1.41356">
        <ele>117</ele>
        <time>2013-06-23T07:26:27Z</time>
      </trkpt>
      <trkpt lat="45.10236" lon="1.41339">
        <ele>119</ele>
        <time>2013-06-23T07:26:44Z</time>
      </trkpt>
      <trkpt lat="45.10247" lon="1.41325">
        <ele>121</ele>
        <time>2013-06-23T07:27:03Z</time>
      </trkpt>
      <trkpt lat="45.10255" lon="1.41304">
        <ele>122</ele>
        <time>2013-06-23T07:27:24Z</time>
      </trkpt>
      <trkpt lat="45.1025" lon="1.4128">
        <ele>124</ele>
        <time>2013-06-23T07:27:44Z</time>
      </trkpt>
      <trkpt lat="45.10244" lon="1.41255">
        <ele>127</ele>
        <time>2013-06-23T07:28:03Z</time>
      </trkpt>
      <trkpt lat="45.10239" lon="1.41237">
        <ele>130</ele>
        <time>2013-06-23T07:28:24Z</time>
      </trkpt>
      <trkpt lat="45.10236" lon="1.41217">
        <ele>132</ele>
        <time>2013-06-23T07:28:43Z</time>
      </trkpt>
      <trkpt lat="45.10244" lon="1.41195">
        <ele>134</ele>
        <time>2013-06-23T07:29:04Z</time>
      </trkpt>
      <trkpt lat="45.10256" lon="1.41179">
        <ele>134</ele>
        <time>2013-06-23T07:29:21Z</time>
      </trkpt>
      <trkpt lat="45.10266" lon="1.41166">
        <ele>134</ele>
        <time>2013-06-23T07:29:38Z</time>
      </trkpt>
      <trkpt lat="45.10276" lon="1.41152">
        <ele>140</ele>
        <time>2013-06-23T07:30:00Z</time>
      </trkpt>
      <trkpt lat="45.10283" lon="1.41142">
        <ele>141</ele>
        <time>2013-06-23T07:30:17Z</time>
      </trkpt>
      <trkpt lat="45.10284" lon="1.41129">
        <ele>143</ele>
        <time>2013-06-23T07:30:39Z</time>
      </trkpt>
      <trkpt lat="45.10278" lon="1.41116">
        <ele>144</ele>
        <time>2013-06-23T07:30:56Z</time>
      </trkpt>
      <trkpt lat="45.1027" lon="1.41102">
        <ele>147</ele>
        <time>2013-06-23T07:31:19Z</time>
      </trkpt>
      <trkpt lat="45.10265" lon="1.41095">
        <ele>150</ele>
        <time>2013-06-23T07:31:36Z</time>
      </trkpt>
      <trkpt lat="45.10255" lon="1.41079">
        <ele>153</ele>
        <time>2013-06-23T07:31:58Z</time>
      </trkpt>
      <trkpt lat="45.10246" lon="1.41063">
        <ele>156</ele>
        <time>2013-06-23T07:32:18Z</time>
      </trkpt>
      <trkpt lat="45.10238" lon="1.41049">
        <ele>157</ele>
        <time>2013-06-23T07:32:36Z</time>
      </trkpt>
      <trkpt lat="45.10233" lon="1.41032">
        <ele>158</ele>
        <time>2013-06-23T07:32:54Z</time>
      </trkpt>
      <trkpt lat="45.10233" lon="1.41016">
        <ele>162</ele>
        <time>2013-06-23T07:33:14Z</time>
      </trkpt>
      <trkpt lat="45.10234" lon="1.41014">
        <ele>163</ele>
        <time>2013-06-23T07:33:30Z</time>
      </trkpt>
      <trkpt lat="45.10246" lon="1.40992">
        <ele>164</ele>
        <time>2013-06-23T07:33:50Z</time>
      </trkpt>
      <trkpt lat="45.1026" lon="1.40977">
        <ele>165</ele>
        <time>2013-06-23T07:34:09Z</time>
      </trkpt>
      <trkpt lat="45.10274" lon="1.40953">
        <ele>165</ele>
        <time>2013-06-23T07:34:27Z</time>
      </trkpt>
      <trkpt lat="45.10286" lon="1.40927">
        <ele>165</ele>
        <time>2013-06-23T07:34:46Z</time>
      </trkpt>
      <trkpt lat="45.10296" lon="1.409">
        <ele>165</ele>
        <time>2013-06-23T07:35:06Z</time>
      </trkpt>
      <trkpt lat="45.10305" lon="1.4087">
        <ele>165</ele>
        <time>2013-06-23T07:35:25Z</time>
      </trkpt>
      <trkpt lat="45.10311" lon="1.40842">
        <ele>165</ele>
        <time>2013-06-23T07:35:45Z</time>
      </trkpt>
      <trkpt lat="45.10309" lon="1.40843">
        <ele>165</ele>
        <time>2013-06-23T07:36:02Z</time>
      </trkpt>
      <trkpt lat="45.10301" lon="1.4085">
        <ele>165</ele>
        <time>2013-06-23T07:36:25Z</time>
      </trkpt>
      <trkpt lat="45.10292" lon="1.40858">
        <ele>165</ele>
        <time>2013-06-23T07:36:43Z</time>
      </trkpt>
      <trkpt lat="45.10287" lon="1.40851">
        <ele>170</ele>
        <time>2013-06-23T07:37:05Z</time>
      </trkpt>
      <trkpt lat="45.10287" lon="1.40838">
        <ele>177</ele>
        <time>2013-06-23T07:37:21Z</time>
      </trkpt>
      <trkpt lat="45.1029" lon="1.40827">
        <ele>187</ele>
        <time>2013-06-23T07:37:44Z</time>
      </trkpt>
      <trkpt lat="45.10289" lon="1.40814">
        <ele>190</ele>
        <time>2013-06-23T07:38:01Z</time>
      </trkpt>
      <trkpt lat="45.1029" lon="1.40801">
        <ele>190</ele>
        <time>2013-06-23T07:38:17Z</time>
      </trkpt>
      <trkpt lat="45.10289" lon="1.40794">
        <ele>192</ele>
        <time>2013-06-23T07:38:40Z</time>
      </trkpt>
      <trkpt lat="45.1029" lon="1.40777">
        <ele>192</ele>
        <time>2013-06-23T07:38:57Z</time>
      </trkpt>
      <trkpt lat="45.10286" lon="1.40761">
        <ele>192</ele>
        <time>2013-06-23T07:39:18Z</time>
      </trkpt>
      <trkpt lat="45.10283" lon="1.40745">
        <ele>192</ele>
        <time>2013-06-23T07:39:35Z</time>
      </trkpt>
      <trkpt lat="45.10276" lon="1.4072">
        <ele>194</ele>
        <time>2013-06-23T07:39:56Z</time>
      </trkpt>
      <trkpt lat="45.10274" lon="1.40706">
        <ele>198</ele>
        <time>2013-06-23T07:40:12Z</time>
      </trkpt>
      <trkpt lat="45.10271" lon="1.40687">
        <ele>199</ele>
        <time>2013-06-23T07:40:28Z</time>
      </trkpt>
      <trkpt lat="45.10264" lon="1.40669">
        <ele>200</ele>
        <time>2013-06-23T07:40:44Z</time>
      </trkpt>
      <trkpt lat="45.1026" lon="1.40658">
        <ele>201</ele>
        <time>2013-06-23T07:41:01Z</time>
      </trkpt>
      <trkpt lat="45.10257" lon="1.40649">
        <ele>202</ele>
        <time>2013-06-23T07:41:17Z</time>
      </trkpt>
      <trkpt lat="45.1026" lon="1.40654">
        <ele>209</ele>
        <time>2013-06-23T07:41:34Z</time>
      </trkpt>
      <trkpt lat="45.10255" lon="1.4064">
        <ele>211</ele>
        <time>2013-06-23T07:41:51Z</time>
      </trkpt>
      <trkpt lat="45.10249" lon="1.4063">
        <ele>211</ele>
        <time>2013-06-23T07:42:08Z</time>
      </trkpt>
      <trkpt lat="45.10244" lon="1.40618">
        <ele>211</ele>
        <time>2013-06-23T07:42:25Z</time>
      </trkpt>
      <trkpt lat="45.10232" lon="1.40605">
        <ele>212</ele>
        <time>2013-06-23T07:42:49Z</time>
      </trkpt>
      <trkpt lat="45.10223" lon="1.40596">
        <ele>214</ele>
        <time>2013-06-23T07:43:06Z</time>
      </trkpt>
      <trkpt lat="45.10215" lon="1.40586">
        <ele>216</ele>
        <time>2013-06-23T07:43:29Z</time>
      </trkpt>
      <trkpt lat="45.10214" lon="1.40582">
        <ele>223</ele>
        <time>2013-06-23T07:43:46Z</time>
      </trkpt>
      <trkpt lat="45.10208" lon="1.40571">
        <ele>228</ele>
        <time>2013-06-23T07:44:04Z</time>
      </trkpt>
      <trkpt lat="45.10203" lon="1.40561">
        <ele>228</ele>
        <time>2013-06-23T07:44:20Z</time>
      </trkpt>
      <trkpt lat="45.10198" lon="1.40547">
        <ele>228</ele>
        <time>2013-06-23T07:44:37Z</time>
      </trkpt>
      <trkpt lat="45.10196" lon="1.40533">
        <ele>228</ele>
        <time>2013-06-23T07:44:55Z</time>
      </trkpt>
      <trkpt lat="45.10194" lon="1.40519">
        <ele>228</ele>
        <time>2013-06-23T07:45:12Z</time>
      </trkpt>
      <trkpt lat="45.10189" lon="1.40501">
        <ele>228</ele>
        <time>2013-06-23T07:45:30Z</time>
      </trkpt>
      <trkpt lat="45.10183" lon="1.40485">
        <ele>228</ele>
        <time>2013-06-23T07:45:46Z</time>
      </trkpt>
      <trkpt lat="45.10178" lon="1.40467">
        <ele>228</ele>
        <time>2013-06-23T07:46:05Z</time>
      </trkpt>
      <trkpt lat="45.10173" lon="1.4045">
        <ele>231</ele>
        <time>2013-06-23T07:46:25Z</time>
      </trkpt>
      <trkpt lat="45.1017" lon="1.40429">
        <ele>235</ele>
        <time>2013-06-23T07:46:41Z</time>
      </trkpt>
      <trkpt lat="45.10166" lon="1.40408">
        <ele>236</ele>
        <time>2013-06-23T07:47:01Z</time>
      </trkpt>
      <trkpt lat="45.10157" lon="1.40382">
        <ele>236</ele>
        <time>2013-06-23T07:47:20Z</time>
      </trkpt>
      <trkpt lat="45.10151" lon="1.40364">
        <ele>237</ele>
        <time>2013-06-23T07:47:38Z</time>
      </trkpt>
      <trkpt lat="45.10143" lon="1.40343">
        <ele>237</ele>
        <time>2013-06-23T07:47:57Z</time>
      </trkpt>
      <trkpt lat="45.10132" lon="1.4032">
        <ele>237</ele>
        <time>2013-06-23T07:48:17Z</time>
      </trkpt>
      <trkpt lat="45.10119" lon="1.40299">
        <ele>236</ele>
        <time>2013-06-23T07:48:35Z</time>
      </trkpt>
      <trkpt lat="45.10109" lon="1.40275">
        <ele>236</ele>
        <time>2013-06-23T07:48:55Z</time>
      </trkpt>
      <trkpt lat="45.10102" lon="1.40254">
        <ele>235</ele>
        <time>2013-06-23T07:49:12Z</time>
      </trkpt>
      <trkpt lat="45.10092" lon="1.40234">
        <ele>235</ele>
        <time>2013-06-23T07:49:31Z</time>
      </trkpt>
      <trkpt lat="45.10083" lon="1.4022">
        <ele>235</ele>
        <time>2013-06-23T07:49:48Z</time>
      </trkpt>
      <trkpt lat="45.10072" lon="1.40212">
        <ele>240</ele>
        <time>2013-06-23T07:50:05Z</time>
      </trkpt>
      <trkpt lat="45.10061" lon="1.40207">
        <ele>241</ele>
        <time>2013-06-23T07:50:22Z</time>
      </trkpt>
      <trkpt lat="45.10049" lon="1.40203">
        <ele>244</ele>
        <time>2013-06-23T07:50:44Z</time>
      </trkpt>
      <trkpt lat="45.1004" lon="1.40199">
        <ele>246</ele>
        <time>2013-06-23T07:51:00Z</time>
      </trkpt>
      <trkpt lat="45.10026" lon="1.40193">
        <ele>250</ele>
        <time>2013-06-23T07:51:17Z</time>
      </trkpt>
      <trkpt lat="45.10014" lon="1.40189">
        <ele>254</ele>
        <time>2013-06-23T07:51:39Z</time>
      </trkpt>
      <trkpt lat="45.10003" lon="1.40177">
        <ele>257</ele>
        <time>2013-06-23T07:51:56Z</time>
      </trkpt>
      <trkpt lat="45.0999" lon="1.40166">
        <ele>257</ele>
        <time>2013-06-23T07:52:15Z</time>
      </trkpt>
      <trkpt lat="45.09978" lon="1.40162">
        <ele>257</ele>
        <time>2013-06-23T07:52:32Z</time>
      </trkpt>
      <trkpt lat="45.09966" lon="1.40157">
        <ele>257</ele>
        <time>2013-06-23T07:52:50Z</time>
      </trkpt>
      <trkpt lat="45.09954" lon="1.40153">
        <ele>256</ele>
        <time>2013-06-23T07:53:10Z</time>
      </trkpt>
      <trkpt lat="45.09942" lon="1.40145">
        <ele>256</ele>
        <time>2013-06-23T07:53:26Z</time>
      </trkpt>
      <trkpt lat="45.09932" lon="1.40131">
        <ele>258</ele>
        <time>2013-06-23T07:53:43Z</time>
      </trkpt>
      <trkpt lat="45.09924" lon="1.40149">
        <ele>260</ele>
        <time>2013-06-23T07:54:05Z</time>
      </trkpt>
      <trkpt lat="45.09913" lon="1.40166">
        <ele>264</ele>
        <time>2013-06-23T07:54:26Z</time>
      </trkpt>
      <trkpt lat="45.09897" lon="1.40177">
        <ele>267</ele>
        <time>2013-06-23T07:54:47Z</time>
      </trkpt>
      <trkpt lat="45.09883" lon="1.40191">
        <ele>267</ele>
        <time>2013-06-23T07:55:07Z</time>
      </trkpt>
      <trkpt lat="45.09873" lon="1.40203">
        <ele>267</ele>
        <time>2013-06-23T07:55:24Z</time>
      </trkpt>
      <trkpt lat="45.09861" lon="1.40219">
        <ele>267</ele>
        <time>2013-06-23T07:55:40Z</time>
      </trkpt>
      <trkpt lat="45.09849" lon="1.40232">
        <ele>270</ele>
        <time>2013-06-23T07:56:00Z</time>
      </trkpt>
      <trkpt lat="45.09839" lon="1.40243">
        <ele>275</ele>
        <time>2013-06-23T07:56:16Z</time>
      </trkpt>
      <trkpt lat="45.09827" lon="1.40256">
        <ele>277</ele>
        <time>2013-06-23T07:56:36Z</time>
      </trkpt>
      <trkpt lat="45.09808" lon="1.40262">
        <ele>277</ele>
        <time>2013-06-23T07:56:58Z</time>
      </trkpt>
      <trkpt lat="45.09788" lon="1.40269">
        <ele>276</ele>
        <time>2013-06-23T07:57:18Z</time>
      </trkpt>
      <trkpt lat="45.09769" lon="1.40286">
        <ele>276</ele>
        <time>2013-06-23T07:57:38Z</time>
      </trkpt>
      <trkpt lat="45.0975" lon="1.40308">
        <ele>276</ele>
        <time>2013-06-23T07:57:59Z</time>
      </trkpt>
      <trkpt lat="45.09732" lon="1.40316">
        <ele>276</ele>
        <time>2013-06-23T07:58:17Z</time>
      </trkpt>
      <trkpt lat="45.09718" lon="1.40308">
        <ele>276</ele>
        <time>2013-06-23T07:58:37Z</time>
      </trkpt>
      <trkpt lat="45.09707" lon="1.40299">
        <ele>276</ele>
        <time>2013-06-23T07:58:53Z</time>
      </trkpt>
      <trkpt lat="45.09691" lon="1.40293">
        <ele>276</ele>
        <time>2013-06-23T07:59:10Z</time>
      </trkpt>
      <trkpt lat="45.09676" lon="1.40285">
        <ele>278</ele>
        <time>2013-06-23T07:59:27Z</time>
      </trkpt>
      <trkpt lat="45.0966" lon="1.40282">
        <ele>278</ele>
        <time>2013-06-23T07:59:45Z</time>
      </trkpt>
      <trkpt lat="45.09644" lon="1.40269">
        <ele>278</ele>
        <time>2013-06-23T08:00:01Z</time>
      </trkpt>
      <trkpt lat="45.09635" lon="1.40254">
        <ele>278</ele>
        <time>2013-06-23T08:00:17Z</time>
      </trkpt>
      <trkpt lat="45.09619" lon="1.40257">
        <ele>278</ele>
        <time>2013-06-23T08:00:37Z</time>
      </trkpt>
      <trkpt lat="45.096" lon="1.40259">
        <ele>283</ele>
        <time>2013-06-23T08:00:53Z</time>
      </trkpt>
      <trkpt lat="45.09591" lon="1.40255">
        <ele>284</ele>
        <time>2013-06-23T08:01:10Z</time>
      </trkpt>
      <trkpt lat="45.09575" lon="1.40253">
        <ele>284</ele>
        <time>2013-06-23T08:01:27Z</time>
      </trkpt>
      <trkpt lat="45.09557" lon="1.40258">
        <ele>284</ele>
        <time>2013-06-23T08:01:43Z</time>
      </trkpt>
      <trkpt lat="45.09536" lon="1.40259">
        <ele>284</ele>
        <time>2013-06-23T08:02:04Z</time>
      </trkpt>
      <trkpt lat="45.09525" lon="1.40262">
        <ele>284</ele>
        <time>2013-06-23T08:02:21Z</time>
      </trkpt>
      <trkpt lat="45.09509" lon="1.40274">
        <ele>284</ele>
        <time>2013-06-23T08:02:38Z</time>
      </trkpt>
      <trkpt lat="45.09489" lon="1.40288">
        <ele>284</ele>
        <time>2013-06-23T08:02:54Z</time>
      </trkpt>
      <trkpt lat="45.09471" lon="1.40307">
        <ele>284</ele>
        <time>2013-06-23T08:03:14Z</time>
      </trkpt>
      <trkpt lat="45.0946" lon="1.40328">
        <ele>283</ele>
        <time>2013-06-23T08:03:33Z</time>
      </trkpt>
      <trkpt lat="45.09447" lon="1.40353">
        <ele>283</ele>
        <time>2013-06-23T08:03:50Z</time>
      </trkpt>
      <trkpt lat="45.09436" lon="1.40375">
        <ele>283</ele>
        <time>2013-06-23T08:04:09Z</time>
      </trkpt>
      <trkpt lat="45.09425" lon="1.40397">
        <ele>283</ele>
        <time>2013-06-23T08:04:27Z</time>
      </trkpt>
      <trkpt lat="45.09414" lon="1.40424">
        <ele>283</ele>
        <time>2013-06-23T08:04:48Z</time>
      </trkpt>
      <trkpt lat="45.09405" lon="1.40444">
        <ele>283</ele>
        <time>2013-06-23T08:05:05Z</time>
      </trkpt>
      <trkpt lat="45.09395" lon="1.40463">
        <ele>283</ele>
        <time>2013-06-23T08:05:21Z</time>
      </trkpt>
      <trkpt lat="45.09388" lon="1.40482">
        <ele>283</ele>
        <time>2013-06-23T08:05:38Z</time>
      </trkpt>
      <trkpt lat="45.09376" lon="1.40505">
        <ele>283</ele>
        <time>2013-06-23T08:05:56Z</time>
      </trkpt>
      <trkpt lat="45.09365" lon="1.40529">
        <ele>283</ele>
        <time>2013-06-23T08:06:14Z</time>
      </trkpt>
      <trkpt lat="45.09357" lon="1.40552">
        <ele>283</ele>
        <time>2013-06-23T08:06:32Z</time>
      </trkpt>
      <trkpt lat="45.09345" lon="1.40578">
        <ele>283</ele>
        <time>2013-06-23T08:06:50Z</time>
      </trkpt>
      <trkpt lat="45.0933" lon="1.40601">
        <ele>283</ele>
        <time>2013-06-23T08:07:10Z</time>
      </trkpt>
      <trkpt lat="45.09316" lon="1.40621">
        <ele>283</ele>
        <time>2013-06-23T08:07:27Z</time>
      </trkpt>
      <trkpt lat="45.09307" lon="1.40644">
        <ele>283</ele>
        <time>2013-06-23T08:07:46Z</time>
      </trkpt>
      <trkpt lat="45.0929" lon="1.40661">
        <ele>283</ele>
        <time>2013-06-23T08:08:07Z</time>
      </trkpt>
      <trkpt lat="45.09272" lon="1.4067">
        <ele>281</ele>
        <time>2013-06-23T08:08:23Z</time>
      </trkpt>
      <trkpt lat="45.09261" lon="1.40674">
        <ele>274</ele>
        <time>2013-06-23T08:08:59Z</time>
      </trkpt>
      <trkpt lat="45.09261" lon="1.40674">
        <ele>273</ele>
        <time>2013-06-23T08:09:18Z</time>
      </trkpt>
      <trkpt lat="45.09261" lon="1.40676">
        <ele>274</ele>
        <time>2013-06-23T08:09:35Z</time>
      </trkpt>
      <trkpt lat="45.09243" lon="1.40687">
        <ele>277</ele>
        <time>2013-06-23T08:09:51Z</time>
      </trkpt>
      <trkpt lat="45.09229" lon="1.40693">
        <ele>277</ele>
        <time>2013-06-23T08:10:08Z</time>
      </trkpt>
      <trkpt lat="45.09212" lon="1.40718">
        <ele>277</ele>
        <time>2013-06-23T08:10:29Z</time>
      </trkpt>
      <trkpt lat="45.09187" lon="1.40725">
        <ele>281</ele>
        <time>2013-06-23T08:10:48Z</time>
      </trkpt>
      <trkpt lat="45.09168" lon="1.40724">
        <ele>281</ele>
        <time>2013-06-23T08:11:06Z</time>
      </trkpt>
      <trkpt lat="45.09146" lon="1.40726">
        <ele>281</ele>
        <time>2013-06-23T08:11:23Z</time>
      </trkpt>
      <trkpt lat="45.09136" lon="1.4071">
        <ele>276</ele>
        <time>2013-06-23T08:11:43Z</time>
      </trkpt>
      <trkpt lat="45.09135" lon="1.40684">
        <ele>269</ele>
        <time>2013-06-23T08:12:00Z</time>
      </trkpt>
      <trkpt lat="45.09136" lon="1.40661">
        <ele>267</ele>
        <time>2013-06-23T08:12:21Z</time>
      </trkpt>
      <trkpt lat="45.09138" lon="1.40633">
        <ele>262</ele>
        <time>2013-06-23T08:12:43Z</time>
      </trkpt>
      <trkpt lat="45.09141" lon="1.40608">
        <ele>262</ele>
        <time>2013-06-23T08:12:59Z</time>
      </trkpt>
      <trkpt lat="45.09142" lon="1.40583">
        <ele>258</ele>
        <time>2013-06-23T08:13:17Z</time>
      </trkpt>
      <trkpt lat="45.09144" lon="1.40552">
        <ele>257</ele>
        <time>2013-06-23T08:13:35Z</time>
      </trkpt>
      <trkpt lat="45.09141" lon="1.40523">
        <ele>257</ele>
        <time>2013-06-23T08:13:53Z</time>
      </trkpt>
      <trkpt lat="45.09142" lon="1.40498">
        <ele>257</ele>
        <time>2013-06-23T08:14:09Z</time>
      </trkpt>
      <trkpt lat="45.09143" lon="1.40469">
        <ele>255</ele>
        <time>2013-06-23T08:14:29Z</time>
      </trkpt>
      <trkpt lat="45.09139" lon="1.40439">
        <ele>255</ele>
        <time>2013-06-23T08:14:45Z</time>
      </trkpt>
      <trkpt lat="45.09137" lon="1.40413">
        <ele>255</ele>
        <time>2013-06-23T08:15:01Z</time>
      </trkpt>
      <trkpt lat="45.09134" lon="1.40386">
        <ele>255</ele>
        <time>2013-06-23T08:15:18Z</time>
      </trkpt>
      <trkpt lat="45.09132" lon="1.40358">
        <ele>259</ele>
        <time>2013-06-23T08:15:37Z</time>
      </trkpt>
      <trkpt lat="45.09127" lon="1.40329">
        <ele>258</ele>
        <time>2013-06-23T08:15:54Z</time>
      </trkpt>
      <trkpt lat="45.09119" lon="1.40306">
        <ele>256</ele>
        <time>2013-06-23T08:16:10Z</time>
      </trkpt>
      <trkpt lat="45.09101" lon="1.4029">
        <ele>255</ele>
        <time>2013-06-23T08:16:32Z</time>
      </trkpt>
      <trkpt lat="45.09092" lon="1.40273">
        <ele>255</ele>
        <time>2013-06-23T08:16:48Z</time>
      </trkpt>
      <trkpt lat="45.09079" lon="1.40241">
        <ele>254</ele>
        <time>2013-06-23T08:17:09Z</time>
      </trkpt>
      <trkpt lat="45.09071" lon="1.40216">
        <ele>254</ele>
        <time>2013-06-23T08:17:26Z</time>
      </trkpt>
      <trkpt lat="45.09064" lon="1.4019">
        <ele>254</ele>
        <time>2013-06-23T08:17:46Z</time>
      </trkpt>
      <trkpt lat="45.09066" lon="1.40167">
        <ele>254</ele>
        <time>2013-06-23T08:18:03Z</time>
      </trkpt>
      <trkpt lat="45.09066" lon="1.40148">
        <ele>255</ele>
        <time>2013-06-23T08:18:22Z</time>
      </trkpt>
      <trkpt lat="45.09063" lon="1.40142">
        <ele>256</ele>
        <time>2013-06-23T08:18:38Z</time>
      </trkpt>
      <trkpt lat="45.09055" lon="1.40118">
        <ele>256</ele>
        <time>2013-06-23T08:18:58Z</time>
      </trkpt>
      <trkpt lat="45.09046" lon="1.40088">
        <ele>255</ele>
        <time>2013-06-23T08:19:17Z</time>
      </trkpt>
      <trkpt lat="45.0904" lon="1.40058">
        <ele>255</ele>
        <time>2013-06-23T08:19:33Z</time>
      </trkpt>
      <trkpt lat="45.09032" lon="1.40032">
        <ele>256</ele>
        <time>2013-06-23T08:19:52Z</time>
      </trkpt>
      <trkpt lat="45.09025" lon="1.40004">
        <ele>259</ele>
        <time>2013-06-23T08:20:12Z</time>
      </trkpt>
      <trkpt lat="45.09008" lon="1.39991">
        <ele>259</ele>
        <time>2013-06-23T08:20:33Z</time>
      </trkpt>
      <trkpt lat="45.08988" lon="1.39985">
        <ele>259</ele>
        <time>2013-06-23T08:20:53Z</time>
      </trkpt>
      <trkpt lat="45.08965" lon="1.39977">
        <ele>259</ele>
        <time>2013-06-23T08:21:14Z</time>
      </trkpt>
      <trkpt lat="45.08951" lon="1.39959">
        <ele>262</ele>
        <time>2013-06-23T08:21:32Z</time>
      </trkpt>
      <trkpt lat="45.0894" lon="1.39937">
        <ele>260</ele>
        <time>2013-06-23T08:21:48Z</time>
      </trkpt>
      <trkpt lat="45.08918" lon="1.39921">
        <ele>258</ele>
        <time>2013-06-23T08:22:06Z</time>
      </trkpt>
      <trkpt lat="45.08895" lon="1.39925">
        <ele>258</ele>
        <time>2013-06-23T08:22:22Z</time>
      </trkpt>
      <trkpt lat="45.08878" lon="1.39924">
        <ele>258</ele>
        <time>2013-06-23T08:22:41Z</time>
      </trkpt>
      <trkpt lat="45.0886" lon="1.39918">
        <ele>260</ele>
        <time>2013-06-23T08:22:58Z</time>
      </trkpt>
      <trkpt lat="45.08841" lon="1.39922">
        <ele>263</ele>
        <time>2013-06-23T08:23:15Z</time>
      </trkpt>
      <trkpt lat="45.08833" lon="1.39908">
        <ele>265</ele>
        <time>2013-06-23T08:23:31Z</time>
      </trkpt>
      <trkpt lat="45.08817" lon="1.399">
        <ele>267</ele>
        <time>2013-06-23T08:23:47Z</time>
      </trkpt>
      <trkpt lat="45.08809" lon="1.39923">
        <ele>267</ele>
        <time>2013-06-23T08:24:04Z</time>
      </trkpt>
      <trkpt lat="45.08789" lon="1.3993">
        <ele>267</ele>
        <time>2013-06-23T08:24:23Z</time>
      </trkpt>
      <trkpt lat="45.08786" lon="1.39931">
        <ele>267</ele>
        <time>2013-06-23T08:24:50Z</time>
      </trkpt>
      <trkpt lat="45.08782" lon="1.39931">
        <ele>267</ele>
        <time>2013-06-23T08:25:18Z</time>
      </trkpt>
      <trkpt lat="45.08777" lon="1.3993">
        <ele>267</ele>
        <time>2013-06-23T08:26:09Z</time>
      </trkpt>
      <trkpt lat="45.08763" lon="1.39933">
        <ele>267</ele>
        <time>2013-06-23T08:26:27Z</time>
      </trkpt>
      <trkpt lat="45.08744" lon="1.39936">
        <ele>267</ele>
        <time>2013-06-23T08:26:46Z</time>
      </trkpt>
      <trkpt lat="45.08726" lon="1.39941">
        <ele>265</ele>
        <time>2013-06-23T08:27:06Z</time>
      </trkpt>
      <trkpt lat="45.08708" lon="1.39946">
        <ele>264</ele>
        <time>2013-06-23T08:27:23Z</time>
      </trkpt>
      <trkpt lat="45.08686" lon="1.39953">
        <ele>264</ele>
        <time>2013-06-23T08:27:41Z</time>
      </trkpt>
      <trkpt lat="45.08664" lon="1.3995">
        <ele>264</ele>
        <time>2013-06-23T08:28:04Z</time>
      </trkpt>
      <trkpt lat="45.08642" lon="1.39956">
        <ele>262</ele>
        <time>2013-06-23T08:28:20Z</time>
      </trkpt>
      <trkpt lat="45.08628" lon="1.3996">
        <ele>262</ele>
        <time>2013-06-23T08:28:36Z</time>
      </trkpt>
      <trkpt lat="45.08606" lon="1.39969">
        <ele>260</ele>
        <time>2013-06-23T08:28:53Z</time>
      </trkpt>
      <trkpt lat="45.08587" lon="1.39973">
        <ele>260</ele>
        <time>2013-06-23T08:29:13Z</time>
      </trkpt>
      <trkpt lat="45.08566" lon="1.39982">
        <ele>260</ele>
        <time>2013-06-23T08:29:30Z</time>
      </trkpt>
      <trkpt lat="45.08548" lon="1.39992">
        <ele>256</ele>
        <time>2013-06-23T08:29:51Z</time>
      </trkpt>
      <trkpt lat="45.08534" lon="1.40007">
        <ele>256</ele>
        <time>2013-06-23T08:30:08Z</time>
      </trkpt>
      <trkpt lat="45.08526" lon="1.40018">
        <ele>257</ele>
        <time>2013-06-23T08:30:30Z</time>
      </trkpt>
      <trkpt lat="45.08522" lon="1.40019">
        <ele>258</ele>
        <time>2013-06-23T08:30:48Z</time>
      </trkpt>
      <trkpt lat="45.08509" lon="1.39997">
        <ele>259</ele>
        <time>2013-06-23T08:31:10Z</time>
      </trkpt>
      <trkpt lat="45.0849" lon="1.39977">
        <ele>261</ele>
        <time>2013-06-23T08:31:32Z</time>
      </trkpt>
      <trkpt lat="45.08476" lon="1.39953">
        <ele>262</ele>
        <time>2013-06-23T08:31:54Z</time>
      </trkpt>
      <trkpt lat="45.08463" lon="1.39929">
        <ele>262</ele>
        <time>2013-06-23T08:32:11Z</time>
      </trkpt>
      <trkpt lat="45.08442" lon="1.3991">
        <ele>262</ele>
        <time>2013-06-23T08:32:29Z</time>
      </trkpt>
      <trkpt lat="45.08432" lon="1.39895">
        <ele>262</ele>
        <time>2013-06-23T08:32:46Z</time>
      </trkpt>
      <trkpt lat="45.0842" lon="1.39876">
        <ele>263</ele>
        <time>2013-06-23T08:33:05Z</time>
      </trkpt>
      <trkpt lat="45.08407" lon="1.39858">
        <ele>263</ele>
        <time>2013-06-23T08:33:22Z</time>
      </trkpt>
      <trkpt lat="45.08401" lon="1.39847">
        <ele>263</ele>
        <time>2013-06-23T08:33:39Z</time>
      </trkpt>
      <trkpt lat="45.08393" lon="1.39828">
        <ele>265</ele>
        <time>2013-06-23T08:33:56Z</time>
      </trkpt>
      <trkpt lat="45.08382" lon="1.39808">
        <ele>270</ele>
        <time>2013-06-23T08:34:13Z</time>
      </trkpt>
      <trkpt lat="45.08365" lon="1.39795">
        <ele>270</ele>
        <time>2013-06-23T08:34:34Z</time>
      </trkpt>
      <trkpt lat="45.08344" lon="1.39783">
        <ele>271</ele>
        <time>2013-06-23T08:34:57Z</time>
      </trkpt>
      <trkpt lat="45.08328" lon="1.39777">
        <ele>274</ele>
        <time>2013-06-23T08:35:17Z</time>
      </trkpt>
      <trkpt lat="45.08312" lon="1.39769">
        <ele>274</ele>
        <time>2013-06-23T08:35:36Z</time>
      </trkpt>
      <trkpt lat="45.08298" lon="1.39767">
        <ele>276</ele>
        <time>2013-06-23T08:35:52Z</time>
      </trkpt>
      <trkpt lat="45.08287" lon="1.39763">
        <ele>280</ele>
        <time>2013-06-23T08:36:09Z</time>
      </trkpt>
      <trkpt lat="45.08276" lon="1.39754">
        <ele>280</ele>
        <time>2013-06-23T08:36:26Z</time>
      </trkpt>
      <trkpt lat="45.08264" lon="1.39739">
        <ele>282</ele>
        <time>2013-06-23T08:36:45Z</time>
      </trkpt>
      <trkpt lat="45.08259" lon="1.3972">
        <ele>282</ele>
        <time>2013-06-23T08:37:01Z</time>
      </trkpt>
      <trkpt lat="45.08248" lon="1.39705">
        <ele>283</ele>
        <time>2013-06-23T08:37:20Z</time>
      </trkpt>
      <trkpt lat="45.08241" lon="1.39686">
        <ele>285</ele>
        <time>2013-06-23T08:37:37Z</time>
      </trkpt>
      <trkpt lat="45.08241" lon="1.39675">
        <ele>287</ele>
        <time>2013-06-23T08:37:58Z</time>
      </trkpt>
      <trkpt lat="45.08241" lon="1.3967">
        <ele>287</ele>
        <time>2013-06-23T08:38:20Z</time>
      </trkpt>
      <trkpt lat="45.08235" lon="1.39664">
        <ele>288</ele>
        <time>2013-06-23T08:38:41Z</time>
      </trkpt>
      <trkpt lat="45.08231" lon="1.39655">
        <ele>293</ele>
        <time>2013-06-23T08:38:59Z</time>
      </trkpt>
      <trkpt lat="45.08224" lon="1.3964">
        <ele>293</ele>
        <time>2013-06-23T08:39:17Z</time>
      </trkpt>
      <trkpt lat="45.08217" lon="1.39624">
        <ele>290</ele>
        <time>2013-06-23T08:39:34Z</time>
      </trkpt>
      <trkpt lat="45.08211" lon="1.39625">
        <ele>291</ele>
        <time>2013-06-23T08:39:56Z</time>
      </trkpt>
      <trkpt lat="45.0821" lon="1.39613">
        <ele>292</ele>
        <time>2013-06-23T08:40:12Z</time>
      </trkpt>
      <trkpt lat="45.08206" lon="1.39602">
        <ele>292</ele>
        <time>2013-06-23T08:40:33Z</time>
      </trkpt>
      <trkpt lat="45.08202" lon="1.39603">
        <ele>292</ele>
        <time>2013-06-23T08:40:49Z</time>
      </trkpt>
      <trkpt lat="45.08199" lon="1.39607">
        <ele>292</ele>
        <time>2013-06-23T08:41:07Z</time>
      </trkpt>
      <trkpt lat="45.08187" lon="1.39617">
        <ele>292</ele>
        <time>2013-06-23T08:41:28Z</time>
      </trkpt>
      <trkpt lat="45.08175" lon="1.39634">
        <ele>292</ele>
        <time>2013-06-23T08:41:44Z</time>
      </trkpt>
      <trkpt lat="45.08159" lon="1.39651">
        <ele>290</ele>
        <time>2013-06-23T08:42:03Z</time>
      </trkpt>
      <trkpt lat="45.08141" lon="1.39673">
        <ele>290</ele>
        <time>2013-06-23T08:42:23Z</time>
      </trkpt>
      <trkpt lat="45.08124" lon="1.39692">
        <ele>286</ele>
        <time>2013-06-23T08:42:43Z</time>
      </trkpt>
      <trkpt lat="45.08106" lon="1.39712">
        <ele>284</ele>
        <time>2013-06-23T08:43:03Z</time>
      </trkpt>
      <trkpt lat="45.08082" lon="1.39722">
        <ele>284</ele>
        <time>2013-06-23T08:43:24Z</time>
      </trkpt>
      <trkpt lat="45.08064" lon="1.39735">
        <ele>281</ele>
        <time>2013-06-23T08:43:45Z</time>
      </trkpt>
      <trkpt lat="45.08046" lon="1.39747">
        <ele>281</ele>
        <time>2013-06-23T08:44:02Z</time>
      </trkpt>
      <trkpt lat="45.08022" lon="1.39761">
        <ele>281</ele>
        <time>2013-06-23T08:44:21Z</time>
      </trkpt>
      <trkpt lat="45.08005" lon="1.39771">
        <ele>281</ele>
        <time>2013-06-23T08:44:37Z</time>
      </trkpt>
      <trkpt lat="45.0799" lon="1.39789">
        <ele>280</ele>
        <time>2013-06-23T08:44:59Z</time>
      </trkpt>
      <trkpt lat="45.07972" lon="1.39804">
        <ele>280</ele>
        <time>2013-06-23T08:45:15Z</time>
      </trkpt>
      <trkpt lat="45.07959" lon="1.3981">
        <ele>279</ele>
        <time>2013-06-23T08:45:32Z</time>
      </trkpt>
      <trkpt lat="45.07941" lon="1.39827">
        <ele>278</ele>
        <time>2013-06-23T08:45:48Z</time>
      </trkpt>
      <trkpt lat="45.07925" lon="1.3984">
        <ele>274</ele>
        <time>2013-06-23T08:46:06Z</time>
      </trkpt>
      <trkpt lat="45.07907" lon="1.39857">
        <ele>274</ele>
        <time>2013-06-23T08:46:22Z</time>
      </trkpt>
      <trkpt lat="45.07888" lon="1.39867">
        <ele>276</ele>
        <time>2013-06-23T08:46:39Z</time>
      </trkpt>
      <trkpt lat="45.0787" lon="1.39883">
        <ele>276</ele>
        <time>2013-06-23T08:47:00Z</time>
      </trkpt>
      <trkpt lat="45.07849" lon="1.39898">
        <ele>276</ele>
        <time>2013-06-23T08:47:20Z</time>
      </trkpt>
      <trkpt lat="45.07834" lon="1.39911">
        <ele>275</ele>
        <time>2013-06-23T08:47:37Z</time>
      </trkpt>
      <trkpt lat="45.07816" lon="1.39928">
        <ele>278</ele>
        <time>2013-06-23T08:47:56Z</time>
      </trkpt>
      <trkpt lat="45.07803" lon="1.3995">
        <ele>278</ele>
        <time>2013-06-23T08:48:13Z</time>
      </trkpt>
      <trkpt lat="45.0779" lon="1.39965">
        <ele>278</ele>
        <time>2013-06-23T08:48:29Z</time>
      </trkpt>
      <trkpt lat="45.07772" lon="1.39984">
        <ele>278</ele>
        <time>2013-06-23T08:48:50Z</time>
      </trkpt>
      <trkpt lat="45.07753" lon="1.40001">
        <ele>278</ele>
        <time>2013-06-23T08:49:07Z</time>
      </trkpt>
      <trkpt lat="45.07739" lon="1.40017">
        <ele>278</ele>
        <time>2013-06-23T08:49:23Z</time>
      </trkpt>
      <trkpt lat="45.07716" lon="1.40035">
        <ele>278</ele>
        <time>2013-06-23T08:49:44Z</time>
      </trkpt>
      <trkpt lat="45.077" lon="1.4005">
        <ele>279</ele>
        <time>2013-06-23T08:50:04Z</time>
      </trkpt>
      <trkpt lat="45.07682" lon="1.40066">
        <ele>279</ele>
        <time>2013-06-23T08:50:20Z</time>
      </trkpt>
      <trkpt lat="45.07664" lon="1.40083">
        <ele>278</ele>
        <time>2013-06-23T08:50:38Z</time>
      </trkpt>
      <trkpt lat="45.07645" lon="1.40103">
        <ele>278</ele>
        <time>2013-06-23T08:50:55Z</time>
      </trkpt>
      <trkpt lat="45.0763" lon="1.40118">
        <ele>278</ele>
        <time>2013-06-23T08:51:11Z</time>
      </trkpt>
      <trkpt lat="45.07615" lon="1.40136">
        <ele>278</ele>
        <time>2013-06-23T08:51:29Z</time>
      </trkpt>
      <trkpt lat="45.07629" lon="1.40151">
        <ele>278</ele>
        <time>2013-06-23T08:51:49Z</time>
      </trkpt>
      <trkpt lat="45.07648" lon="1.4016">
        <ele>278</ele>
        <time>2013-06-23T08:52:06Z</time>
      </trkpt>
      <trkpt lat="45.07667" lon="1.40178">
        <ele>276</ele>
        <time>2013-06-23T08:52:30Z</time>
      </trkpt>
      <trkpt lat="45.07685" lon="1.40191">
        <ele>276</ele>
        <time>2013-06-23T08:52:47Z</time>
      </trkpt>
      <trkpt lat="45.07693" lon="1.40213">
        <ele>276</ele>
        <time>2013-06-23T08:53:03Z</time>
      </trkpt>
      <trkpt lat="45.07699" lon="1.40242">
        <ele>276</ele>
        <time>2013-06-23T08:53:23Z</time>
      </trkpt>
      <trkpt lat="45.07713" lon="1.40276">
        <ele>275</ele>
        <time>2013-06-23T08:53:43Z</time>
      </trkpt>
      <trkpt lat="45.07724" lon="1.40303">
        <ele>275</ele>
        <time>2013-06-23T08:54:01Z</time>
      </trkpt>
      <trkpt lat="45.07733" lon="1.40328">
        <ele>272</ele>
        <time>2013-06-23T08:54:20Z</time>
      </trkpt>
      <trkpt lat="45.07749" lon="1.40353">
        <ele>272</ele>
        <time>2013-06-23T08:54:37Z</time>
      </trkpt>
      <trkpt lat="45.07756" lon="1.40378">
        <ele>272</ele>
        <time>2013-06-23T08:54:55Z</time>
      </trkpt>
      <trkpt lat="45.07765" lon="1.40402">
        <ele>269</ele>
        <time>2013-06-23T08:55:15Z</time>
      </trkpt>
      <trkpt lat="45.07779" lon="1.40426">
        <ele>269</ele>
        <time>2013-06-23T08:55:32Z</time>
      </trkpt>
      <trkpt lat="45.07796" lon="1.40445">
        <ele>269</ele>
        <time>2013-06-23T08:55:49Z</time>
      </trkpt>
      <trkpt lat="45.07807" lon="1.40465">
        <ele>267</ele>
        <time>2013-06-23T08:56:06Z</time>
      </trkpt>
      <trkpt lat="45.07831" lon="1.40466">
        <ele>266</ele>
        <time>2013-06-23T08:56:24Z</time>
      </trkpt>
      <trkpt lat="45.07854" lon="1.4047">
        <ele>265</ele>
        <time>2013-06-23T08:56:44Z</time>
      </trkpt>
      <trkpt lat="45.07863" lon="1.40498">
        <ele>265</ele>
        <time>2013-06-23T08:57:01Z</time>
      </trkpt>
      <trkpt lat="45.07878" lon="1.4052">
        <ele>265</ele>
        <time>2013-06-23T08:57:20Z</time>
      </trkpt>
      <trkpt lat="45.07898" lon="1.40538">
        <ele>264</ele>
        <time>2013-06-23T08:57:37Z</time>
      </trkpt>
      <trkpt lat="45.07912" lon="1.40555">
        <ele>263</ele>
        <time>2013-06-23T08:57:55Z</time>
      </trkpt>
      <trkpt lat="45.07934" lon="1.40556">
        <ele>262</ele>
        <time>2013-06-23T08:58:12Z</time>
      </trkpt>
      <trkpt lat="45.07936" lon="1.40557">
        <ele>262</ele>
        <time>2013-06-23T08:58:35Z</time>
      </trkpt>
      <trkpt lat="45.07935" lon="1.40557">
        <ele>262</ele>
        <time>2013-06-23T08:59:31Z</time>
      </trkpt>
      <trkpt lat="45.07938" lon="1.4055">
        <ele>262</ele>
        <time>2013-06-23T08:59:54Z</time>
      </trkpt>
      <trkpt lat="45.07944" lon="1.40544">
        <ele>262</ele>
        <time>2013-06-23T09:00:10Z</time>
      </trkpt>
      <trkpt lat="45.07963" lon="1.40538">
        <ele>262</ele>
        <time>2013-06-23T09:00:30Z</time>
      </trkpt>
      <trkpt lat="45.07986" lon="1.40517">
        <ele>262</ele>
        <time>2013-06-23T09:00:51Z</time>
      </trkpt>
      <trkpt lat="45.08006" lon="1.40512">
        <ele>261</ele>
        <time>2013-06-23T09:01:10Z</time>
      </trkpt>
      <trkpt lat="45.08025" lon="1.40505">
        <ele>258</ele>
        <time>2013-06-23T09:01:27Z</time>
      </trkpt>
      <trkpt lat="45.08044" lon="1.40498">
        <ele>255</ele>
        <time>2013-06-23T09:01:44Z</time>
      </trkpt>
      <trkpt lat="45.08065" lon="1.40491">
        <ele>254</ele>
        <time>2013-06-23T09:02:03Z</time>
      </trkpt>
      <trkpt lat="45.08086" lon="1.40481">
        <ele>254</ele>
        <time>2013-06-23T09:02:23Z</time>
      </trkpt>
      <trkpt lat="45.0811" lon="1.40474">
        <ele>254</ele>
        <time>2013-06-23T09:02:44Z</time>
      </trkpt>
      <trkpt lat="45.08139" lon="1.40462">
        <ele>251</ele>
        <time>2013-06-23T09:03:05Z</time>
      </trkpt>
      <trkpt lat="45.08166" lon="1.40454">
        <ele>251</ele>
        <time>2013-06-23T09:03:24Z</time>
      </trkpt>
      <trkpt lat="45.08188" lon="1.40446">
        <ele>251</ele>
        <time>2013-06-23T09:03:44Z</time>
      </trkpt>
      <trkpt lat="45.08211" lon="1.40436">
        <ele>251</ele>
        <time>2013-06-23T09:04:04Z</time>
      </trkpt>
      <trkpt lat="45.08234" lon="1.40428">
        <ele>251</ele>
        <time>2013-06-23T09:04:20Z</time>
      </trkpt>
      <trkpt lat="45.08251" lon="1.40423">
        <ele>251</ele>
        <time>2013-06-23T09:04:37Z</time>
      </trkpt>
      <trkpt lat="45.08274" lon="1.40414">
        <ele>252</ele>
        <time>2013-06-23T09:04:57Z</time>
      </trkpt>
      <trkpt lat="45.08297" lon="1.40407">
        <ele>253</ele>
        <time>2013-06-23T09:05:16Z</time>
      </trkpt>
      <trkpt lat="45.08318" lon="1.404">
        <ele>255</ele>
        <time>2013-06-23T09:05:36Z</time>
      </trkpt>
      <trkpt lat="45.08341" lon="1.40384">
        <ele>256</ele>
        <time>2013-06-23T09:05:56Z</time>
      </trkpt>
      <trkpt lat="45.08362" lon="1.40361">
        <ele>256</ele>
        <time>2013-06-23T09:06:17Z</time>
      </trkpt>
      <trkpt lat="45.08381" lon="1.40336">
        <ele>256</ele>
        <time>2013-06-23T09:06:38Z</time>
      </trkpt>
      <trkpt lat="45.08397" lon="1.40316">
        <ele>256</ele>
        <time>2013-06-23T09:06:58Z</time>
      </trkpt>
      <trkpt lat="45.08417" lon="1.40284">
        <ele>257</ele>
        <time>2013-06-23T09:07:19Z</time>
      </trkpt>
      <trkpt lat="45.08433" lon="1.40266">
        <ele>257</ele>
        <time>2013-06-23T09:07:39Z</time>
      </trkpt>
      <trkpt lat="45.08451" lon="1.40243">
        <ele>257</ele>
        <time>2013-06-23T09:07:59Z</time>
      </trkpt>
      <trkpt lat="45.08474" lon="1.4022">
        <ele>259</ele>
        <time>2013-06-23T09:08:19Z</time>
      </trkpt>
      <trkpt lat="45.08494" lon="1.4021">
        <ele>261</ele>
        <time>2013-06-23T09:08:38Z</time>
      </trkpt>
      <trkpt lat="45.08513" lon="1.40223">
        <ele>264</ele>
        <time>2013-06-23T09:08:59Z</time>
      </trkpt>
      <trkpt lat="45.08532" lon="1.40235">
        <ele>266</ele>
        <time>2013-06-23T09:09:16Z</time>
      </trkpt>
      <trkpt lat="45.08551" lon="1.40249">
        <ele>266</ele>
        <time>2013-06-23T09:09:35Z</time>
      </trkpt>
      <trkpt lat="45.08572" lon="1.40266">
        <ele>267</ele>
        <time>2013-06-23T09:09:55Z</time>
      </trkpt>
      <trkpt lat="45.08588" lon="1.40277">
        <ele>267</ele>
        <time>2013-06-23T09:10:16Z</time>
      </trkpt>
      <trkpt lat="45.08608" lon="1.40288">
        <ele>265</ele>
        <time>2013-06-23T09:10:33Z</time>
      </trkpt>
      <trkpt lat="45.08625" lon="1.40302">
        <ele>263</ele>
        <time>2013-06-23T09:10:51Z</time>
      </trkpt>
      <trkpt lat="45.08653" lon="1.40312">
        <ele>262</ele>
        <time>2013-06-23T09:11:12Z</time>
      </trkpt>
      <trkpt lat="45.0867" lon="1.40318">
        <ele>261</ele>
        <time>2013-06-23T09:11:29Z</time>
      </trkpt>
      <trkpt lat="45.08666" lon="1.40348">
        <ele>260</ele>
        <time>2013-06-23T09:11:50Z</time>
      </trkpt>
      <trkpt lat="45.08662" lon="1.40368">
        <ele>260</ele>
        <time>2013-06-23T09:12:06Z</time>
      </trkpt>
      <trkpt lat="45.08659" lon="1.40394">
        <ele>260</ele>
        <time>2013-06-23T09:12:26Z</time>
      </trkpt>
      <trkpt lat="45.08653" lon="1.40422">
        <ele>260</ele>
        <time>2013-06-23T09:12:42Z</time>
      </trkpt>
      <trkpt lat="45.08639" lon="1.4044">
        <ele>260</ele>
        <time>2013-06-23T09:13:01Z</time>
      </trkpt>
      <trkpt lat="45.08625" lon="1.40451">
        <ele>260</ele>
        <time>2013-06-23T09:13:18Z</time>
      </trkpt>
      <trkpt lat="45.08606" lon="1.4047">
        <ele>260</ele>
        <time>2013-06-23T09:13:35Z</time>
      </trkpt>
      <trkpt lat="45.08589" lon="1.40487">
        <ele>260</ele>
        <time>2013-06-23T09:13:56Z</time>
      </trkpt>
      <trkpt lat="45.08571" lon="1.40505">
        <ele>260</ele>
        <time>2013-06-23T09:14:13Z</time>
      </trkpt>
      <trkpt lat="45.08553" lon="1.4052">
        <ele>257</ele>
        <time>2013-06-23T09:14:32Z</time>
      </trkpt>
      <trkpt lat="45.08539" lon="1.40536">
        <ele>255</ele>
        <time>2013-06-23T09:14:49Z</time>
      </trkpt>
      <trkpt lat="45.08522" lon="1.40549">
        <ele>250</ele>
        <time>2013-06-23T09:15:05Z</time>
      </trkpt>
      <trkpt lat="45.0851" lon="1.40563">
        <ele>247</ele>
        <time>2013-06-23T09:15:21Z</time>
      </trkpt>
      <trkpt lat="45.0849" lon="1.40589">
        <ele>247</ele>
        <time>2013-06-23T09:15:38Z</time>
      </trkpt>
      <trkpt lat="45.08478" lon="1.40613">
        <ele>247</ele>
        <time>2013-06-23T09:15:55Z</time>
      </trkpt>
      <trkpt lat="45.08469" lon="1.40638">
        <ele>247</ele>
        <time>2013-06-23T09:16:11Z</time>
      </trkpt>
      <trkpt lat="45.08468" lon="1.40663">
        <ele>252</ele>
        <time>2013-06-23T09:16:28Z</time>
      </trkpt>
      <trkpt lat="45.08467" lon="1.4069">
        <ele>256</ele>
        <time>2013-06-23T09:16:49Z</time>
      </trkpt>
      <trkpt lat="45.08461" lon="1.4072">
        <ele>253</ele>
        <time>2013-06-23T09:17:06Z</time>
      </trkpt>
      <trkpt lat="45.08458" lon="1.40743">
        <ele>253</ele>
        <time>2013-06-23T09:17:24Z</time>
      </trkpt>
      <trkpt lat="45.08447" lon="1.40759">
        <ele>253</ele>
        <time>2013-06-23T09:17:41Z</time>
      </trkpt>
      <trkpt lat="45.08435" lon="1.40773">
        <ele>254</ele>
        <time>2013-06-23T09:18:03Z</time>
      </trkpt>
      <trkpt lat="45.0843" lon="1.40787">
        <ele>256</ele>
        <time>2013-06-23T09:18:20Z</time>
      </trkpt>
      <trkpt lat="45.08426" lon="1.40798">
        <ele>257</ele>
        <time>2013-06-23T09:18:36Z</time>
      </trkpt>
      <trkpt lat="45.08414" lon="1.40822">
        <ele>258</ele>
        <time>2013-06-23T09:18:57Z</time>
      </trkpt>
      <trkpt lat="45.08402" lon="1.40839">
        <ele>258</ele>
        <time>2013-06-23T09:19:14Z</time>
      </trkpt>
      <trkpt lat="45.08395" lon="1.40857">
        <ele>258</ele>
        <time>2013-06-23T09:19:31Z</time>
      </trkpt>
      <trkpt lat="45.08387" lon="1.40874">
        <ele>259</ele>
        <time>2013-06-23T09:19:48Z</time>
      </trkpt>
      <trkpt lat="45.08374" lon="1.40907">
        <ele>259</ele>
        <time>2013-06-23T09:20:08Z</time>
      </trkpt>
      <trkpt lat="45.08361" lon="1.40934">
        <ele>260</ele>
        <time>2013-06-23T09:20:30Z</time>
      </trkpt>
      <trkpt lat="45.08346" lon="1.40958">
        <ele>261</ele>
        <time>2013-06-23T09:20:47Z</time>
      </trkpt>
      <trkpt lat="45.08333" lon="1.40977">
        <ele>261</ele>
        <time>2013-06-23T09:21:03Z</time>
      </trkpt>
      <trkpt lat="45.08318" lon="1.41005">
        <ele>261</ele>
        <time>2013-06-23T09:21:23Z</time>
      </trkpt>
      <trkpt lat="45.08305" lon="1.41036">
        <ele>261</ele>
        <time>2013-06-23T09:21:44Z</time>
      </trkpt>
      <trkpt lat="45.08289" lon="1.41063">
        <ele>262</ele>
        <time>2013-06-23T09:22:05Z</time>
      </trkpt>
      <trkpt lat="45.08289" lon="1.41073">
        <ele>262</ele>
        <time>2013-06-23T09:22:22Z</time>
      </trkpt>
      <trkpt lat="45.08289" lon="1.4108">
        <ele>265</ele>
        <time>2013-06-23T09:22:41Z</time>
      </trkpt>
      <trkpt lat="45.0829" lon="1.41081">
        <ele>267</ele>
        <time>2013-06-23T09:23:22Z</time>
      </trkpt>
      <trkpt lat="45.08291" lon="1.41083">
        <ele>267</ele>
        <time>2013-06-23T09:23:53Z</time>
      </trkpt>
      <trkpt lat="45.0829" lon="1.41078">
        <ele>267</ele>
        <time>2013-06-23T09:24:11Z</time>
      </trkpt>
      <trkpt lat="45.08305" lon="1.4108">
        <ele>265</ele>
        <time>2013-06-23T09:24:28Z</time>
      </trkpt>
      <trkpt lat="45.08321" lon="1.41088">
        <ele>264</ele>
        <time>2013-06-23T09:24:49Z</time>
      </trkpt>
      <trkpt lat="45.08334" lon="1.41092">
        <ele>261</ele>
        <time>2013-06-23T09:25:05Z</time>
      </trkpt>
      <trkpt lat="45.08351" lon="1.41099">
        <ele>257</ele>
        <time>2013-06-23T09:25:26Z</time>
      </trkpt>
      <trkpt lat="45.08364" lon="1.41106">
        <ele>253</ele>
        <time>2013-06-23T09:25:43Z</time>
      </trkpt>
      <trkpt lat="45.08378" lon="1.41098">
        <ele>250</ele>
        <time>2013-06-23T09:25:59Z</time>
      </trkpt>
      <trkpt lat="45.08393" lon="1.41088">
        <ele>246</ele>
        <time>2013-06-23T09:26:15Z</time>
      </trkpt>
      <trkpt lat="45.08408" lon="1.41088">
        <ele>240</ele>
        <time>2013-06-23T09:26:33Z</time>
      </trkpt>
      <trkpt lat="45.08424" lon="1.41097">
        <ele>239</ele>
        <time>2013-06-23T09:26:49Z</time>
      </trkpt>
      <trkpt lat="45.08446" lon="1.41105">
        <ele>239</ele>
        <time>2013-06-23T09:27:06Z</time>
      </trkpt>
      <trkpt lat="45.08464" lon="1.41114">
        <ele>239</ele>
        <time>2013-06-23T09:27:22Z</time>
      </trkpt>
      <trkpt lat="45.08487" lon="1.41128">
        <ele>239</ele>
        <time>2013-06-23T09:27:38Z</time>
      </trkpt>
      <trkpt lat="45.08509" lon="1.41137">
        <ele>239</ele>
        <time>2013-06-23T09:27:58Z</time>
      </trkpt>
      <trkpt lat="45.08525" lon="1.41145">
        <ele>235</ele>
        <time>2013-06-23T09:28:15Z</time>
      </trkpt>
      <trkpt lat="45.08546" lon="1.41157">
        <ele>234</ele>
        <time>2013-06-23T09:28:33Z</time>
      </trkpt>
      <trkpt lat="45.08567" lon="1.41168">
        <ele>233</ele>
        <time>2013-06-23T09:28:53Z</time>
      </trkpt>
      <trkpt lat="45.08594" lon="1.41156">
        <ele>233</ele>
        <time>2013-06-23T09:29:11Z</time>
      </trkpt>
      <trkpt lat="45.08613" lon="1.4115">
        <ele>233</ele>
        <time>2013-06-23T09:29:31Z</time>
      </trkpt>
      <trkpt lat="45.08632" lon="1.41155">
        <ele>233</ele>
        <time>2013-06-23T09:29:48Z</time>
      </trkpt>
      <trkpt lat="45.08649" lon="1.4116">
        <ele>233</ele>
        <time>2013-06-23T09:30:09Z</time>
      </trkpt>
      <trkpt lat="45.08671" lon="1.41164">
        <ele>233</ele>
        <time>2013-06-23T09:30:25Z</time>
      </trkpt>
      <trkpt lat="45.08689" lon="1.4117">
        <ele>233</ele>
        <time>2013-06-23T09:30:44Z</time>
      </trkpt>
      <trkpt lat="45.08708" lon="1.41177">
        <ele>233</ele>
        <time>2013-06-23T09:31:00Z</time>
      </trkpt>
      <trkpt lat="45.08732" lon="1.41185">
        <ele>233</ele>
        <time>2013-06-23T09:31:22Z</time>
      </trkpt>
      <trkpt lat="45.08755" lon="1.41193">
        <ele>233</ele>
        <time>2013-06-23T09:31:43Z</time>
      </trkpt>
      <trkpt lat="45.08783" lon="1.41205">
        <ele>237</ele>
        <time>2013-06-23T09:32:05Z</time>
      </trkpt>
      <trkpt lat="45.08804" lon="1.41212">
        <ele>241</ele>
        <time>2013-06-23T09:32:26Z</time>
      </trkpt>
      <trkpt lat="45.08826" lon="1.41217">
        <ele>242</ele>
        <time>2013-06-23T09:32:47Z</time>
      </trkpt>
      <trkpt lat="45.08846" lon="1.41222">
        <ele>242</ele>
        <time>2013-06-23T09:33:09Z</time>
      </trkpt>
      <trkpt lat="45.08865" lon="1.41234">
        <ele>244</ele>
        <time>2013-06-23T09:33:26Z</time>
      </trkpt>
      <trkpt lat="45.08886" lon="1.41232">
        <ele>244</ele>
        <time>2013-06-23T09:33:42Z</time>
      </trkpt>
      <trkpt lat="45.08905" lon="1.41235">
        <ele>246</ele>
        <time>2013-06-23T09:34:02Z</time>
      </trkpt>
      <trkpt lat="45.08926" lon="1.41235">
        <ele>248</ele>
        <time>2013-06-23T09:34:24Z</time>
      </trkpt>
      <trkpt lat="45.08951" lon="1.41235">
        <ele>251</ele>
        <time>2013-06-23T09:34:45Z</time>
      </trkpt>
      <trkpt lat="45.08974" lon="1.41234">
        <ele>252</ele>
        <time>2013-06-23T09:35:07Z</time>
      </trkpt>
      <trkpt lat="45.08995" lon="1.41234">
        <ele>254</ele>
        <time>2013-06-23T09:35:24Z</time>
      </trkpt>
      <trkpt lat="45.09008" lon="1.4125">
        <ele>256</ele>
        <time>2013-06-23T09:35:45Z</time>
      </trkpt>
      <trkpt lat="45.0902" lon="1.41273">
        <ele>256</ele>
        <time>2013-06-23T09:36:04Z</time>
      </trkpt>
      <trkpt lat="45.09037" lon="1.4129">
        <ele>256</ele>
        <time>2013-06-23T09:36:23Z</time>
      </trkpt>
      <trkpt lat="45.09054" lon="1.41292">
        <ele>256</ele>
        <time>2013-06-23T09:36:40Z</time>
      </trkpt>
      <trkpt lat="45.09071" lon="1.41291">
        <ele>256</ele>
        <time>2013-06-23T09:36:57Z</time>
      </trkpt>
      <trkpt lat="45.09094" lon="1.41286">
        <ele>254</ele>
        <time>2013-06-23T09:37:17Z</time>
      </trkpt>
      <trkpt lat="45.09112" lon="1.4128">
        <ele>249</ele>
        <time>2013-06-23T09:37:34Z</time>
      </trkpt>
      <trkpt lat="45.09129" lon="1.41276">
        <ele>246</ele>
        <time>2013-06-23T09:37:51Z</time>
      </trkpt>
      <trkpt lat="45.09146" lon="1.41267">
        <ele>245</ele>
        <time>2013-06-23T09:38:08Z</time>
      </trkpt>
      <trkpt lat="45.09161" lon="1.41259">
        <ele>241</ele>
        <time>2013-06-23T09:38:25Z</time>
      </trkpt>
      <trkpt lat="45.09174" lon="1.41244">
        <ele>237</ele>
        <time>2013-06-23T09:38:46Z</time>
      </trkpt>
      <trkpt lat="45.09191" lon="1.41228">
        <ele>236</ele>
        <time>2013-06-23T09:39:03Z</time>
      </trkpt>
      <trkpt lat="45.09203" lon="1.41208">
        <ele>234</ele>
        <time>2013-06-23T09:39:21Z</time>
      </trkpt>
      <trkpt lat="45.09216" lon="1.41186">
        <ele>234</ele>
        <time>2013-06-23T09:39:40Z</time>
      </trkpt>
      <trkpt lat="45.09224" lon="1.41165">
        <ele>228</ele>
        <time>2013-06-23T09:40:01Z</time>
      </trkpt>
      <trkpt lat="45.09227" lon="1.41142">
        <ele>226</ele>
        <time>2013-06-23T09:40:18Z</time>
      </trkpt>
      <trkpt lat="45.0925" lon="1.41129">
        <ele>223</ele>
        <time>2013-06-23T09:40:35Z</time>
      </trkpt>
      <trkpt lat="45.09275" lon="1.41128">
        <ele>223</ele>
        <time>2013-06-23T09:40:53Z</time>
      </trkpt>
      <trkpt lat="45.09297" lon="1.41126">
        <ele>223</ele>
        <time>2013-06-23T09:41:15Z</time>
      </trkpt>
      <trkpt lat="45.09324" lon="1.41128">
        <ele>223</ele>
        <time>2013-06-23T09:41:34Z</time>
      </trkpt>
      <trkpt lat="45.09344" lon="1.41136">
        <ele>224</ele>
        <time>2013-06-23T09:41:52Z</time>
      </trkpt>
      <trkpt lat="45.09354" lon="1.41134">
        <ele>225</ele>
        <time>2013-06-23T09:42:09Z</time>
      </trkpt>
      <trkpt lat="45.09349" lon="1.41126">
        <ele>227</ele>
        <time>2013-06-23T09:42:25Z</time>
      </trkpt>
      <trkpt lat="45.09338" lon="1.41111">
        <ele>228</ele>
        <time>2013-06-23T09:42:43Z</time>
      </trkpt>
      <trkpt lat="45.09343" lon="1.41093">
        <ele>228</ele>
        <time>2013-06-23T09:43:00Z</time>
      </trkpt>
      <trkpt lat="45.09362" lon="1.41095">
        <ele>228</ele>
        <time>2013-06-23T09:43:17Z</time>
      </trkpt>
      <trkpt lat="45.09383" lon="1.41091">
        <ele>228</ele>
        <time>2013-06-23T09:43:35Z</time>
      </trkpt>
      <trkpt lat="45.09399" lon="1.41084">
        <ele>228</ele>
        <time>2013-06-23T09:43:53Z</time>
      </trkpt>
      <trkpt lat="45.09416" lon="1.41073">
        <ele>228</ele>
        <time>2013-06-23T09:44:12Z</time>
      </trkpt>
      <trkpt lat="45.09433" lon="1.41061">
        <ele>229</ele>
        <time>2013-06-23T09:44:33Z</time>
      </trkpt>
      <trkpt lat="45.09446" lon="1.41049">
        <ele>231</ele>
        <time>2013-06-23T09:44:51Z</time>
      </trkpt>
      <trkpt lat="45.09462" lon="1.4104">
        <ele>234</ele>
        <time>2013-06-23T09:45:10Z</time>
      </trkpt>
      <trkpt lat="45.0948" lon="1.41032">
        <ele>235</ele>
        <time>2013-06-23T09:45:26Z</time>
      </trkpt>
      <trkpt lat="45.09495" lon="1.4102">
        <ele>235</ele>
        <time>2013-06-23T09:45:46Z</time>
      </trkpt>
      <trkpt lat="45.09512" lon="1.41004">
        <ele>240</ele>
        <time>2013-06-23T09:46:02Z</time>
      </trkpt>
      <trkpt lat="45.09529" lon="1.40994">
        <ele>240</ele>
        <time>2013-06-23T09:46:22Z</time>
      </trkpt>
      <trkpt lat="45.09555" lon="1.40987">
        <ele>238</ele>
        <time>2013-06-23T09:46:41Z</time>
      </trkpt>
      <trkpt lat="45.09581" lon="1.40976">
        <ele>238</ele>
        <time>2013-06-23T09:47:01Z</time>
      </trkpt>
      <trkpt lat="45.09606" lon="1.40969">
        <ele>241</ele>
        <time>2013-06-23T09:47:20Z</time>
      </trkpt>
      <trkpt lat="45.09621" lon="1.40966">
        <ele>243</ele>
        <time>2013-06-23T09:47:36Z</time>
      </trkpt>
      <trkpt lat="45.09637" lon="1.40957">
        <ele>243</ele>
        <time>2013-06-23T09:47:55Z</time>
      </trkpt>
      <trkpt lat="45.09658" lon="1.40947">
        <ele>243</ele>
        <time>2013-06-23T09:48:15Z</time>
      </trkpt>
      <trkpt lat="45.09677" lon="1.40949">
        <ele>243</ele>
        <time>2013-06-23T09:48:32Z</time>
      </trkpt>
      <trkpt lat="45.09701" lon="1.40955">
        <ele>243</ele>
        <time>2013-06-23T09:48:52Z</time>
      </trkpt>
      <trkpt lat="45.09723" lon="1.40958">
        <ele>243</ele>
        <time>2013-06-23T09:49:09Z</time>
      </trkpt>
      <trkpt lat="45.09742" lon="1.40956">
        <ele>244</ele>
        <time>2013-06-23T09:49:28Z</time>
      </trkpt>
      <trkpt lat="45.0976" lon="1.40968">
        <ele>244</ele>
        <time>2013-06-23T09:49:44Z</time>
      </trkpt>
      <trkpt lat="45.0977" lon="1.40975">
        <ele>244</ele>
        <time>2013-06-23T09:50:01Z</time>
      </trkpt>
      <trkpt lat="45.09783" lon="1.40984">
        <ele>242</ele>
        <time>2013-06-23T09:50:19Z</time>
      </trkpt>
      <trkpt lat="45.09794" lon="1.40996">
        <ele>242</ele>
        <time>2013-06-23T09:50:39Z</time>
      </trkpt>
      <trkpt lat="45.0979" lon="1.41003">
        <ele>241</ele>
        <time>2013-06-23T09:51:01Z</time>
      </trkpt>
      <trkpt lat="45.09792" lon="1.41011">
        <ele>237</ele>
        <time>2013-06-23T09:51:24Z</time>
      </trkpt>
      <trkpt lat="45.09796" lon="1.41024">
        <ele>236</ele>
        <time>2013-06-23T09:51:40Z</time>
      </trkpt>
      <trkpt lat="45.09798" lon="1.41033">
        <ele>236</ele>
        <time>2013-06-23T09:51:58Z</time>
      </trkpt>
      <trkpt lat="45.09786" lon="1.41042">
        <ele>236</ele>
        <time>2013-06-23T09:52:18Z</time>
      </trkpt>
      <trkpt lat="45.09771" lon="1.41052">
        <ele>240</ele>
        <time>2013-06-23T09:52:35Z</time>
      </trkpt>
      <trkpt lat="45.09752" lon="1.41054">
        <ele>240</ele>
        <time>2013-06-23T09:52:55Z</time>
      </trkpt>
      <trkpt lat="45.09752" lon="1.41054">
        <ele>236</ele>
        <time>2013-06-23T09:53:11Z</time>
      </trkpt>
      <trkpt lat="45.09771" lon="1.41066">
        <ele>228</ele>
        <time>2013-06-23T09:53:30Z</time>
      </trkpt>
      <trkpt lat="45.09785" lon="1.41065">
        <ele>223</ele>
        <time>2013-06-23T09:53:46Z</time>
      </trkpt>
      <trkpt lat="45.09805" lon="1.41074">
        <ele>220</ele>
        <time>2013-06-23T09:54:03Z</time>
      </trkpt>
      <trkpt lat="45.09821" lon="1.41083">
        <ele>221</ele>
        <time>2013-06-23T09:54:23Z</time>
      </trkpt>
      <trkpt lat="45.09838" lon="1.41087">
        <ele>215</ele>
        <time>2013-06-23T09:54:40Z</time>
      </trkpt>
      <trkpt lat="45.09849" lon="1.41094">
        <ele>208</ele>
        <time>2013-06-23T09:55:00Z</time>
      </trkpt>
      <trkpt lat="45.09866" lon="1.41098">
        <ele>196</ele>
        <time>2013-06-23T09:55:22Z</time>
      </trkpt>
      <trkpt lat="45.09883" lon="1.41102">
        <ele>189</ele>
        <time>2013-06-23T09:55:39Z</time>
      </trkpt>
      <trkpt lat="45.09903" lon="1.41105">
        <ele>186</ele>
        <time>2013-06-23T09:55:59Z</time>
      </trkpt>
      <trkpt lat="45.09922" lon="1.41111">
        <ele>186</ele>
        <time>2013-06-23T09:56:15Z</time>
      </trkpt>
      <trkpt lat="45.09931" lon="1.41107">
        <ele>187</ele>
        <time>2013-06-23T09:56:32Z</time>
      </trkpt>
      <trkpt lat="45.09943" lon="1.41106">
        <ele>182</ele>
        <time>2013-06-23T09:56:49Z</time>
      </trkpt>
      <trkpt lat="45.09963" lon="1.4111">
        <ele>181</ele>
        <time>2013-06-23T09:57:05Z</time>
      </trkpt>
      <trkpt lat="45.09983" lon="1.41105">
        <ele>186</ele>
        <time>2013-06-23T09:57:24Z</time>
      </trkpt>
      <trkpt lat="45.10006" lon="1.41097">
        <ele>186</ele>
        <time>2013-06-23T09:57:45Z</time>
      </trkpt>
      <trkpt lat="45.10027" lon="1.41084">
        <ele>181</ele>
        <time>2013-06-23T09:58:04Z</time>
      </trkpt>
      <trkpt lat="45.10046" lon="1.41074">
        <ele>180</ele>
        <time>2013-06-23T09:58:20Z</time>
      </trkpt>
      <trkpt lat="45.10071" lon="1.41068">
        <ele>174</ele>
        <time>2013-06-23T09:58:40Z</time>
      </trkpt>
      <trkpt lat="45.10095" lon="1.4106">
        <ele>174</ele>
        <time>2013-06-23T09:59:00Z</time>
      </trkpt>
      <trkpt lat="45.10118" lon="1.4105">
        <ele>174</ele>
        <time>2013-06-23T09:59:17Z</time>
      </trkpt>
      <trkpt lat="45.10143" lon="1.41041">
        <ele>174</ele>
        <time>2013-06-23T09:59:36Z</time>
      </trkpt>
      <trkpt lat="45.10165" lon="1.41032">
        <ele>171</ele>
        <time>2013-06-23T09:59:55Z</time>
      </trkpt>
      <trkpt lat="45.1019" lon="1.41024">
        <ele>166</ele>
        <time>2013-06-23T10:00:11Z</time>
      </trkpt>
      <trkpt lat="45.10215" lon="1.41017">
        <ele>166</ele>
        <time>2013-06-23T10:00:30Z</time>
      </trkpt>
      <trkpt lat="45.10235" lon="1.41014">
        <ele>166</ele>
        <time>2013-06-23T10:00:50Z</time>
      </trkpt>
      <trkpt lat="45.10234" lon="1.41036">
        <ele>166</ele>
        <time>2013-06-23T10:01:11Z</time>
      </trkpt>
      <trkpt lat="45.10243" lon="1.41059">
        <ele>159</ele>
        <time>2013-06-23T10:01:31Z</time>
      </trkpt>
      <trkpt lat="45.10254" lon="1.41075">
        <ele>157</ele>
        <time>2013-06-23T10:01:47Z</time>
      </trkpt>
      <trkpt lat="45.10266" lon="1.41096">
        <ele>153</ele>
        <time>2013-06-23T10:02:07Z</time>
      </trkpt>
      <trkpt lat="45.10278" lon="1.41116">
        <ele>148</ele>
        <time>2013-06-23T10:02:24Z</time>
      </trkpt>
      <trkpt lat="45.10281" lon="1.4114">
        <ele>143</ele>
        <time>2013-06-23T10:02:43Z</time>
      </trkpt>
      <trkpt lat="45.1027" lon="1.41165">
        <ele>141</ele>
        <time>2013-06-23T10:03:00Z</time>
      </trkpt>
      <trkpt lat="45.10256" lon="1.41184">
        <ele>138</ele>
        <time>2013-06-23T10:03:19Z</time>
      </trkpt>
      <trkpt lat="45.10239" lon="1.41209">
        <ele>134</ele>
        <time>2013-06-23T10:03:38Z</time>
      </trkpt>
      <trkpt lat="45.10239" lon="1.41237">
        <ele>132</ele>
        <time>2013-06-23T10:03:55Z</time>
      </trkpt>
      <trkpt lat="45.10246" lon="1.41262">
        <ele>126</ele>
        <time>2013-06-23T10:04:15Z</time>
      </trkpt>
      <trkpt lat="45.10252" lon="1.41295">
        <ele>120</ele>
        <time>2013-06-23T10:04:33Z</time>
      </trkpt>
      <trkpt lat="45.10252" lon="1.41323">
        <ele>120</ele>
        <time>2013-06-23T10:04:53Z</time>
      </trkpt>
      <trkpt lat="45.10237" lon="1.41347">
        <ele>118</ele>
        <time>2013-06-23T10:05:10Z</time>
      </trkpt>
      <trkpt lat="45.10242" lon="1.41373">
        <ele>113</ele>
        <time>2013-06-23T10:05:31Z</time>
      </trkpt>
      <trkpt lat="45.10249" lon="1.41401">
        <ele>108</ele>
        <time>2013-06-23T10:05:48Z</time>
      </trkpt>
      <trkpt lat="45.10266" lon="1.41407">
        <ele>106</ele>
        <time>2013-06-23T10:06:06Z</time>
      </trkpt>
      <trkpt lat="45.10287" lon="1.41421">
        <ele>105</ele>
        <time>2013-06-23T10:06:22Z</time>
      </trkpt>
      <trkpt lat="45.10301" lon="1.41452">
        <ele>104</ele>
        <time>2013-06-23T10:06:39Z</time>
      </trkpt>
      <trkpt lat="45.10304" lon="1.41481">
        <ele>109</ele>
        <time>2013-06-23T10:06:59Z</time>
      </trkpt>
      <trkpt lat="45.10311" lon="1.41507">
        <ele>106</ele>
        <time>2013-06-23T10:07:15Z</time>
      </trkpt>
      <trkpt lat="45.10329" lon="1.41494">
        <ele>106</ele>
        <time>2013-06-23T10:07:35Z</time>
      </trkpt>
      <trkpt lat="45.10355" lon="1.41486">
        <ele>106</ele>
        <time>2013-06-23T10:07:52Z</time>
      </trkpt>
      <trkpt lat="45.10373" lon="1.41477">
        <ele>106</ele>
        <time>2013-06-23T10:08:11Z</time>
      </trkpt>
      <trkpt lat="45.10399" lon="1.41469">
        <ele>104</ele>
        <time>2013-06-23T10:08:31Z</time>
      </trkpt>
      <trkpt lat="45.10427" lon="1.41462">
        <ele>101</ele>
        <time>2013-06-23T10:08:52Z</time>
      </trkpt>
      <trkpt lat="45.10442" lon="1.41454">
        <ele>100</ele>
        <time>2013-06-23T10:09:09Z</time>
      </trkpt>
      <trkpt lat="45.10454" lon="1.41446">
        <ele>103</ele>
        <time>2013-06-23T10:09:22Z</time>
      </trkpt>
    </trkseg>
  </trk>
</gpx>